sensor_id;sensor_type;location;lat;lon;timestamp;noise_LAeq;noise_LA_min;noise_LA_max;noise_LA01;noise_LA95
66888;Laerm;67239;51.680;5.976;2023-04-30T00:01:00;57.29;28.88;73.74;;
66888;Laerm;67239;51.680;5.976;2023-04-30T00:03:27;61.41;29.25;79.19;;
66888;Laerm;67239;51.680;5.976;2023-04-30T00:05:55;58.04;28.82;77.12;;
66888;Laerm;67239;51.680;5.976;2023-04-30T00:08:22;59.70;29.49;78.20;;
66888;Laerm;67239;51.680;5.976;2023-04-30T00:10:49;32.91;27.83;41.75;;
66888;Laerm;67239;51.680;5.976;2023-04-30T00:13:17;32.11;27.97;37.41;;
66888;Laerm;67239;51.680;5.976;2023-04-30T00:15:45;31.82;28.16;40.02;;
66888;Laerm;67239;51.680;5.976;2023-04-30T00:18:12;31.16;27.94;44.78;;
66888;Laerm;67239;51.680;5.976;2023-04-30T00:20:39;55.99;29.23;73.47;;
66888;Laerm;67239;51.680;5.976;2023-04-30T00:23:06;35.86;29.40;58.17;;
66888;Laerm;67239;51.680;5.976;2023-04-30T00:25:34;58.16;28.70;77.85;;
66888;Laerm;67239;51.680;5.976;2023-04-30T00:28:01;55.72;28.00;75.32;;
66888;Laerm;67239;51.680;5.976;2023-04-30T00:30:28;30.21;27.83;46.95;;
66888;Laerm;67239;51.680;5.976;2023-04-30T00:32:55;56.86;27.82;75.61;;
66888;Laerm;67239;51.680;5.976;2023-04-30T00:35:22;33.28;28.86;43.30;;
66888;Laerm;67239;51.680;5.976;2023-04-30T00:37:49;61.76;28.72;82.31;;
66888;Laerm;67239;51.680;5.976;2023-04-30T00:40:16;41.52;28.95;63.74;;
66888;Laerm;67239;51.680;5.976;2023-04-30T00:42:43;31.00;27.91;41.40;;
66888;Laerm;67239;51.680;5.976;2023-04-30T00:45:10;31.95;28.50;39.24;;
66888;Laerm;67239;51.680;5.976;2023-04-30T00:47:38;31.56;28.42;41.02;;
66888;Laerm;67239;51.680;5.976;2023-04-30T00:50:06;30.26;28.12;36.79;;
66888;Laerm;67239;51.680;5.976;2023-04-30T00:52:33;32.71;28.30;43.44;;
66888;Laerm;67239;51.680;5.976;2023-04-30T00:55:01;30.47;27.93;35.67;;
66888;Laerm;67239;51.680;5.976;2023-04-30T00:57:28;36.60;27.95;48.34;;
66888;Laerm;67239;51.680;5.976;2023-04-30T00:59:55;30.61;27.68;39.82;;
66888;Laerm;67239;51.680;5.976;2023-04-30T01:02:23;32.58;28.01;43.35;;
66888;Laerm;67239;51.680;5.976;2023-04-30T01:04:50;32.35;28.19;40.94;;
66888;Laerm;67239;51.680;5.976;2023-04-30T01:07:18;31.34;28.06;43.27;;
66888;Laerm;67239;51.680;5.976;2023-04-30T01:09:45;30.63;27.94;43.21;;
66888;Laerm;67239;51.680;5.976;2023-04-30T01:12:55;33.37;28.37;45.41;;
66888;Laerm;67239;51.680;5.976;2023-04-30T01:16:13;31.90;28.04;41.18;;
66888;Laerm;67239;51.680;5.976;2023-04-30T01:18:51;30.29;27.85;35.62;;
66888;Laerm;67239;51.680;5.976;2023-04-30T01:21:21;30.22;28.18;36.46;;
66888;Laerm;67239;51.680;5.976;2023-04-30T01:24:05;31.11;28.21;39.52;;
66888;Laerm;67239;51.680;5.976;2023-04-30T01:29:42;31.46;28.09;40.29;;
66888;Laerm;67239;51.680;5.976;2023-04-30T01:32:10;30.56;28.07;38.46;;
66888;Laerm;67239;51.680;5.976;2023-04-30T01:34:37;32.27;27.93;40.51;;
66888;Laerm;67239;51.680;5.976;2023-04-30T01:37:38;33.91;28.58;43.98;;
66888;Laerm;67239;51.680;5.976;2023-04-30T01:43:29;32.26;28.42;41.84;;
66888;Laerm;67239;51.680;5.976;2023-04-30T01:46:29;47.68;28.19;68.84;;
66888;Laerm;67239;51.680;5.976;2023-04-30T01:49:29;49.56;27.85;69.27;;
66888;Laerm;67239;51.680;5.976;2023-04-30T01:52:22;49.93;28.00;69.80;;
66888;Laerm;67239;51.680;5.976;2023-04-30T01:55:11;47.65;28.69;69.23;;
66888;Laerm;67239;51.680;5.976;2023-04-30T01:57:55;30.87;28.10;38.85;;
66888;Laerm;67239;51.680;5.976;2023-04-30T02:00:29;39.93;28.12;69.80;;
66888;Laerm;67239;51.680;5.976;2023-04-30T02:02:57;36.05;28.19;65.40;;
66888;Laerm;67239;51.680;5.976;2023-04-30T02:05:25;43.87;28.58;61.16;;
66888;Laerm;67239;51.680;5.976;2023-04-30T02:07:52;54.18;29.02;70.82;;
66888;Laerm;67239;51.680;5.976;2023-04-30T02:10:24;53.09;29.31;69.93;;
66888;Laerm;67239;51.680;5.976;2023-04-30T02:12:52;36.63;28.75;59.24;;
66888;Laerm;67239;51.680;5.976;2023-04-30T02:15:19;45.83;28.89;64.79;;
66888;Laerm;67239;51.680;5.976;2023-04-30T02:17:46;45.23;28.76;63.32;;
66888;Laerm;67239;51.680;5.976;2023-04-30T02:20:14;47.05;28.59;67.90;;
66888;Laerm;67239;51.680;5.976;2023-04-30T02:22:42;46.77;28.53;67.89;;
66888;Laerm;67239;51.680;5.976;2023-04-30T02:25:09;45.40;29.38;64.88;;
66888;Laerm;67239;51.680;5.976;2023-04-30T02:27:38;52.26;28.65;68.84;;
66888;Laerm;67239;51.680;5.976;2023-04-30T02:30:06;45.03;28.16;64.47;;
66888;Laerm;67239;51.680;5.976;2023-04-30T02:32:34;57.35;28.25;77.37;;
66888;Laerm;67239;51.680;5.976;2023-04-30T02:35:01;39.49;28.08;54.37;;
66888;Laerm;67239;51.680;5.976;2023-04-30T02:37:28;55.85;27.97;73.73;;
66888;Laerm;67239;51.680;5.976;2023-04-30T02:39:56;44.88;28.40;66.50;;
66888;Laerm;67239;51.680;5.976;2023-04-30T02:42:24;39.71;29.04;65.95;;
66888;Laerm;67239;51.680;5.976;2023-04-30T02:44:51;55.83;30.76;75.39;;
66888;Laerm;67239;51.680;5.976;2023-04-30T02:47:18;48.29;29.10;72.53;;
66888;Laerm;67239;51.680;5.976;2023-04-30T02:49:45;51.06;28.99;71.33;;
66888;Laerm;67239;51.680;5.976;2023-04-30T02:52:12;57.71;29.11;76.79;;
66888;Laerm;67239;51.680;5.976;2023-04-30T02:54:39;58.61;29.22;77.71;;
66888;Laerm;67239;51.680;5.976;2023-04-30T02:57:06;59.92;29.20;80.99;;
66888;Laerm;67239;51.680;5.976;2023-04-30T02:59:33;50.75;28.83;72.49;;
66888;Laerm;67239;51.680;5.976;2023-04-30T03:02:01;50.49;29.40;72.07;;
66888;Laerm;67239;51.680;5.976;2023-04-30T03:04:29;50.50;29.44;70.52;;
66888;Laerm;67239;51.680;5.976;2023-04-30T03:06:56;55.88;29.56;73.89;;
66888;Laerm;67239;51.680;5.976;2023-04-30T03:09:23;44.89;30.00;69.68;;
66888;Laerm;67239;51.680;5.976;2023-04-30T03:11:50;58.20;31.63;72.25;;
66888;Laerm;67239;51.680;5.976;2023-04-30T03:14:17;57.01;31.46;73.25;;
66888;Laerm;67239;51.680;5.976;2023-04-30T03:16:44;59.58;34.76;75.59;;
66888;Laerm;67239;51.680;5.976;2023-04-30T03:19:11;50.36;33.12;65.02;;
66888;Laerm;67239;51.680;5.976;2023-04-30T03:21:38;56.56;33.79;72.82;;
66888;Laerm;67239;51.680;5.976;2023-04-30T03:24:06;51.97;32.18;66.78;;
66888;Laerm;67239;51.680;5.976;2023-04-30T03:26:33;51.65;32.05;67.05;;
66888;Laerm;67239;51.680;5.976;2023-04-30T03:29:00;56.55;33.94;74.51;;
66888;Laerm;67239;51.680;5.976;2023-04-30T03:31:27;55.29;34.11;72.63;;
66888;Laerm;67239;51.680;5.976;2023-04-30T03:33:55;53.47;33.34;71.55;;
66888;Laerm;67239;51.680;5.976;2023-04-30T03:36:22;63.54;35.07;78.31;;
66888;Laerm;67239;51.680;5.976;2023-04-30T03:38:49;62.53;32.96;79.22;;
66888;Laerm;67239;51.680;5.976;2023-04-30T03:41:16;65.73;33.85;85.17;;
66888;Laerm;67239;51.680;5.976;2023-04-30T03:43:43;61.24;31.35;79.03;;
66888;Laerm;67239;51.680;5.976;2023-04-30T03:46:10;65.92;34.98;79.68;;
66888;Laerm;67239;51.680;5.976;2023-04-30T03:48:37;58.34;32.11;76.52;;
66888;Laerm;67239;51.680;5.976;2023-04-30T03:51:05;58.82;33.26;75.79;;
66888;Laerm;67239;51.680;5.976;2023-04-30T03:53:32;55.70;30.66;71.02;;
66888;Laerm;67239;51.680;5.976;2023-04-30T03:55:59;61.58;31.98;78.59;;
66888;Laerm;67239;51.680;5.976;2023-04-30T03:58:27;57.52;33.09;75.47;;
66888;Laerm;67239;51.680;5.976;2023-04-30T04:00:54;46.49;32.30;62.30;;
66888;Laerm;67239;51.680;5.976;2023-04-30T04:03:21;62.81;31.84;77.86;;
66888;Laerm;67239;51.680;5.976;2023-04-30T04:05:49;61.87;33.36;77.49;;
66888;Laerm;67239;51.680;5.976;2023-04-30T04:08:17;62.13;34.37;79.84;;
66888;Laerm;67239;51.680;5.976;2023-04-30T04:10:44;44.93;31.94;64.32;;
66888;Laerm;67239;51.680;5.976;2023-04-30T04:13:11;45.68;33.01;60.44;;
66888;Laerm;67239;51.680;5.976;2023-04-30T04:15:38;46.23;33.90;61.54;;
66888;Laerm;67239;51.680;5.976;2023-04-30T04:18:05;60.00;31.63;76.11;;
66888;Laerm;67239;51.680;5.976;2023-04-30T04:20:34;43.95;31.14;62.28;;
66888;Laerm;67239;51.680;5.976;2023-04-30T04:23:02;41.50;31.31;57.77;;
66888;Laerm;67239;51.680;5.976;2023-04-30T04:25:29;58.89;31.38;78.87;;
66888;Laerm;67239;51.680;5.976;2023-04-30T04:27:57;54.55;31.53;71.51;;
66888;Laerm;67239;51.680;5.976;2023-04-30T04:30:24;43.73;31.27;56.68;;
66888;Laerm;67239;51.680;5.976;2023-04-30T04:32:51;62.27;31.14;80.05;;
66888;Laerm;67239;51.680;5.976;2023-04-30T04:35:20;60.67;30.91;79.93;;
66888;Laerm;67239;51.680;5.976;2023-04-30T04:37:47;58.09;33.90;76.56;;
66888;Laerm;67239;51.680;5.976;2023-04-30T04:40:14;44.35;32.44;65.22;;
66888;Laerm;67239;51.680;5.976;2023-04-30T04:42:41;45.41;31.50;62.83;;
66888;Laerm;67239;51.680;5.976;2023-04-30T04:45:09;59.03;34.93;76.64;;
66888;Laerm;67239;51.680;5.976;2023-04-30T04:47:37;42.73;30.70;56.17;;
66888;Laerm;67239;51.680;5.976;2023-04-30T04:50:06;44.37;34.23;63.76;;
66888;Laerm;67239;51.680;5.976;2023-04-30T04:52:33;44.68;33.69;59.08;;
66888;Laerm;67239;51.680;5.976;2023-04-30T04:55:00;61.02;34.68;77.62;;
66888;Laerm;67239;51.680;5.976;2023-04-30T04:57:27;59.81;34.20;80.02;;
66888;Laerm;67239;51.680;5.976;2023-04-30T04:59:54;62.29;36.05;78.41;;
66888;Laerm;67239;51.680;5.976;2023-04-30T05:02:22;39.94;31.37;55.78;;
66888;Laerm;67239;51.680;5.976;2023-04-30T05:04:50;54.48;31.99;73.90;;
66888;Laerm;67239;51.680;5.976;2023-04-30T05:07:18;59.11;34.23;76.35;;
66888;Laerm;67239;51.680;5.976;2023-04-30T05:09:46;47.29;32.44;60.88;;
66888;Laerm;67239;51.680;5.976;2023-04-30T05:12:13;41.45;32.69;55.40;;
66888;Laerm;67239;51.680;5.976;2023-04-30T05:14:40;45.86;31.26;67.77;;
66888;Laerm;67239;51.680;5.976;2023-04-30T05:17:08;54.10;31.25;77.12;;
66888;Laerm;67239;51.680;5.976;2023-04-30T05:19:35;63.68;34.08;82.50;;
66888;Laerm;67239;51.680;5.976;2023-04-30T05:22:02;58.40;33.70;76.06;;
66888;Laerm;67239;51.680;5.976;2023-04-30T05:24:30;45.72;32.17;58.66;;
66888;Laerm;67239;51.680;5.976;2023-04-30T05:26:57;42.35;31.70;57.55;;
66888;Laerm;67239;51.680;5.976;2023-04-30T05:29:24;56.45;31.44;76.05;;
66888;Laerm;67239;51.680;5.976;2023-04-30T05:31:51;59.97;32.22;75.88;;
66888;Laerm;67239;51.680;5.976;2023-04-30T05:34:18;38.75;31.67;50.70;;
66888;Laerm;67239;51.680;5.976;2023-04-30T05:36:45;64.35;32.43;80.37;;
66888;Laerm;67239;51.680;5.976;2023-04-30T05:39:12;53.32;32.54;69.32;;
66888;Laerm;67239;51.680;5.976;2023-04-30T05:41:39;38.25;31.19;54.75;;
66888;Laerm;67239;51.680;5.976;2023-04-30T05:44:07;44.80;33.20;59.90;;
66888;Laerm;67239;51.680;5.976;2023-04-30T05:46:34;58.33;32.36;77.20;;
66888;Laerm;67239;51.680;5.976;2023-04-30T05:49:01;58.60;32.71;78.34;;
66888;Laerm;67239;51.680;5.976;2023-04-30T05:51:28;59.87;33.03;78.18;;
66888;Laerm;67239;51.680;5.976;2023-04-30T05:53:55;61.39;31.92;81.44;;
66888;Laerm;67239;51.680;5.976;2023-04-30T05:56:23;46.11;32.20;66.57;;
66888;Laerm;67239;51.680;5.976;2023-04-30T05:58:50;43.61;31.70;59.41;;
66888;Laerm;67239;51.680;5.976;2023-04-30T06:01:19;58.07;32.13;77.78;;
66888;Laerm;67239;51.680;5.976;2023-04-30T06:03:46;59.97;31.27;79.70;;
66888;Laerm;67239;51.680;5.976;2023-04-30T06:06:13;57.23;31.63;74.94;;
66888;Laerm;67239;51.680;5.976;2023-04-30T06:08:41;60.57;31.67;76.36;;
66888;Laerm;67239;51.680;5.976;2023-04-30T06:11:12;56.30;32.84;74.32;;
66888;Laerm;67239;51.680;5.976;2023-04-30T06:13:39;47.99;31.40;65.35;;
66888;Laerm;67239;51.680;5.976;2023-04-30T06:16:07;47.73;31.91;64.81;;
66888;Laerm;67239;51.680;5.976;2023-04-30T06:18:34;54.87;32.46;71.53;;
66888;Laerm;67239;51.680;5.976;2023-04-30T06:21:01;57.97;32.02;77.06;;
66888;Laerm;67239;51.680;5.976;2023-04-30T06:23:28;60.28;31.86;77.26;;
66888;Laerm;67239;51.680;5.976;2023-04-30T06:25:56;54.53;33.09;72.72;;
66888;Laerm;67239;51.680;5.976;2023-04-30T06:28:23;63.13;32.44;79.29;;
66888;Laerm;67239;51.680;5.976;2023-04-30T06:30:50;57.80;31.26;74.08;;
66888;Laerm;67239;51.680;5.976;2023-04-30T06:33:17;47.60;31.79;66.11;;
66888;Laerm;67239;51.680;5.976;2023-04-30T06:35:45;60.77;32.46;77.86;;
66888;Laerm;67239;51.680;5.976;2023-04-30T06:38:16;64.28;32.91;78.57;;
66888;Laerm;67239;51.680;5.976;2023-04-30T06:40:43;62.07;34.51;78.05;;
66888;Laerm;67239;51.680;5.976;2023-04-30T06:43:11;53.01;31.22;70.57;;
66888;Laerm;67239;51.680;5.976;2023-04-30T06:45:38;60.55;33.06;77.14;;
66888;Laerm;67239;51.680;5.976;2023-04-30T06:48:05;62.56;33.49;81.89;;
66888;Laerm;67239;51.680;5.976;2023-04-30T06:50:32;60.19;34.48;76.85;;
66888;Laerm;67239;51.680;5.976;2023-04-30T06:52:59;54.76;35.27;73.01;;
66888;Laerm;67239;51.680;5.976;2023-04-30T06:55:27;41.51;32.45;57.44;;
66888;Laerm;67239;51.680;5.976;2023-04-30T06:57:54;67.11;34.03;84.70;;
66888;Laerm;67239;51.680;5.976;2023-04-30T07:00:21;61.41;31.99;80.93;;
66888;Laerm;67239;51.680;5.976;2023-04-30T07:02:48;58.65;33.12;74.55;;
66888;Laerm;67239;51.680;5.976;2023-04-30T07:05:18;64.85;32.59;81.55;;
66888;Laerm;67239;51.680;5.976;2023-04-30T07:07:45;59.85;33.25;79.63;;
66888;Laerm;67239;51.680;5.976;2023-04-30T07:10:12;59.53;31.75;77.27;;
66888;Laerm;67239;51.680;5.976;2023-04-30T07:12:39;64.93;33.73;77.79;;
66888;Laerm;67239;51.680;5.976;2023-04-30T07:15:07;66.27;33.76;83.67;;
66888;Laerm;67239;51.680;5.976;2023-04-30T07:17:34;63.79;32.25;76.10;;
66888;Laerm;67239;51.680;5.976;2023-04-30T07:20:02;63.66;32.76;78.77;;
66888;Laerm;67239;51.680;5.976;2023-04-30T07:22:30;63.62;32.36;83.24;;
66888;Laerm;67239;51.680;5.976;2023-04-30T07:24:58;58.67;31.83;74.94;;
66888;Laerm;67239;51.680;5.976;2023-04-30T07:27:26;64.28;31.86;79.62;;
66888;Laerm;67239;51.680;5.976;2023-04-30T07:29:54;64.21;35.78;78.04;;
66888;Laerm;67239;51.680;5.976;2023-04-30T07:32:22;64.63;33.21;78.75;;
66888;Laerm;67239;51.680;5.976;2023-04-30T07:34:52;64.64;33.86;79.87;;
66888;Laerm;67239;51.680;5.976;2023-04-30T07:37:19;64.50;32.63;78.82;;
66888;Laerm;67239;51.680;5.976;2023-04-30T07:39:47;64.62;34.12;80.08;;
66888;Laerm;67239;51.680;5.976;2023-04-30T07:42:14;63.46;33.95;81.86;;
66888;Laerm;67239;51.680;5.976;2023-04-30T07:44:42;62.74;33.32;81.37;;
66888;Laerm;67239;51.680;5.976;2023-04-30T07:47:09;60.02;33.81;77.65;;
66888;Laerm;67239;51.680;5.976;2023-04-30T07:49:36;63.67;32.89;81.71;;
66888;Laerm;67239;51.680;5.976;2023-04-30T07:52:03;63.26;33.80;80.57;;
66888;Laerm;67239;51.680;5.976;2023-04-30T07:54:31;65.75;36.43;80.67;;
66888;Laerm;67239;51.680;5.976;2023-04-30T07:57:02;62.74;39.10;76.93;;
66888;Laerm;67239;51.680;5.976;2023-04-30T07:59:29;61.82;31.58;79.75;;
66888;Laerm;67239;51.680;5.976;2023-04-30T08:01:57;60.58;33.59;77.39;;
66888;Laerm;67239;51.680;5.976;2023-04-30T08:04:24;62.73;31.99;78.57;;
66888;Laerm;67239;51.680;5.976;2023-04-30T08:06:52;60.10;32.13;75.72;;
66888;Laerm;67239;51.680;5.976;2023-04-30T08:09:19;65.01;38.00;79.33;;
66888;Laerm;67239;51.680;5.976;2023-04-30T08:11:46;62.19;31.91;76.16;;
66888;Laerm;67239;51.680;5.976;2023-04-30T08:14:13;65.30;32.56;83.29;;
66888;Laerm;67239;51.680;5.976;2023-04-30T08:16:40;66.80;34.72;80.26;;
66888;Laerm;67239;51.680;5.976;2023-04-30T08:19:07;62.20;33.70;78.40;;
66888;Laerm;67239;51.680;5.976;2023-04-30T08:21:34;67.72;39.16;82.05;;
66888;Laerm;67239;51.680;5.976;2023-04-30T08:24:01;69.16;34.84;81.36;;
66888;Laerm;67239;51.680;5.976;2023-04-30T08:26:28;63.53;34.97;81.89;;
66888;Laerm;67239;51.680;5.976;2023-04-30T08:28:55;61.52;32.53;74.96;;
66888;Laerm;67239;51.680;5.976;2023-04-30T08:31:22;63.53;36.60;79.29;;
66888;Laerm;67239;51.680;5.976;2023-04-30T08:33:49;63.30;35.34;76.94;;
66888;Laerm;67239;51.680;5.976;2023-04-30T08:36:16;63.63;34.95;77.88;;
66888;Laerm;67239;51.680;5.976;2023-04-30T08:38:43;65.10;35.68;81.29;;
66888;Laerm;67239;51.680;5.976;2023-04-30T08:41:12;63.94;33.33;83.04;;
66888;Laerm;67239;51.680;5.976;2023-04-30T08:43:41;65.99;40.32;79.58;;
66888;Laerm;67239;51.680;5.976;2023-04-30T08:46:11;65.14;32.52;80.53;;
66888;Laerm;67239;51.680;5.976;2023-04-30T08:48:43;61.20;34.84;77.95;;
66888;Laerm;67239;51.680;5.976;2023-04-30T08:51:10;62.72;35.36;75.30;;
66888;Laerm;67239;51.680;5.976;2023-04-30T08:53:39;62.73;34.58;80.17;;
66888;Laerm;67239;51.680;5.976;2023-04-30T08:56:09;63.54;36.91;77.93;;
66888;Laerm;67239;51.680;5.976;2023-04-30T08:58:36;70.11;38.03;82.70;;
66888;Laerm;67239;51.680;5.976;2023-04-30T09:01:06;64.57;40.16;77.23;;
66888;Laerm;67239;51.680;5.976;2023-04-30T09:03:35;61.55;35.53;77.90;;
66888;Laerm;67239;51.680;5.976;2023-04-30T09:06:03;63.65;35.54;77.45;;
66888;Laerm;67239;51.680;5.976;2023-04-30T09:08:45;65.09;36.55;79.28;;
66888;Laerm;67239;51.680;5.976;2023-04-30T09:11:27;64.18;34.85;76.64;;
66888;Laerm;67239;51.680;5.976;2023-04-30T09:13:58;64.44;37.45;77.64;;
66888;Laerm;67239;51.680;5.976;2023-04-30T09:16:27;64.55;35.92;81.16;;
66888;Laerm;67239;51.680;5.976;2023-04-30T09:18:59;64.32;36.36;82.41;;
66888;Laerm;67239;51.680;5.976;2023-04-30T09:21:36;62.92;34.43;78.90;;
66888;Laerm;67239;51.680;5.976;2023-04-30T09:24:04;61.44;39.70;77.22;;
66888;Laerm;67239;51.680;5.976;2023-04-30T09:26:37;63.86;35.36;80.74;;
66888;Laerm;67239;51.680;5.976;2023-04-30T09:29:04;66.26;38.21;77.27;;
66888;Laerm;67239;51.680;5.976;2023-04-30T09:31:38;71.31;38.15;87.57;;
66888;Laerm;67239;51.680;5.976;2023-04-30T09:34:05;64.97;34.65;78.03;;
66888;Laerm;67239;51.680;5.976;2023-04-30T09:36:33;65.60;35.60;76.75;;
66888;Laerm;67239;51.680;5.976;2023-04-30T09:39:09;62.66;34.69;78.80;;
66888;Laerm;67239;51.680;5.976;2023-04-30T09:41:44;61.92;33.76;80.54;;
66888;Laerm;67239;51.680;5.976;2023-04-30T09:44:27;63.01;35.30;77.80;;
66888;Laerm;67239;51.680;5.976;2023-04-30T09:46:56;64.27;36.29;79.80;;
66888;Laerm;67239;51.680;5.976;2023-04-30T09:49:25;60.28;33.82;76.03;;
66888;Laerm;67239;51.680;5.976;2023-04-30T09:51:59;67.57;34.32;82.50;;
66888;Laerm;67239;51.680;5.976;2023-04-30T09:54:31;64.86;36.92;79.35;;
66888;Laerm;67239;51.680;5.976;2023-04-30T09:57:00;63.75;34.23;78.39;;
66888;Laerm;67239;51.680;5.976;2023-04-30T09:59:34;62.43;34.52;77.09;;
66888;Laerm;67239;51.680;5.976;2023-04-30T10:02:06;60.97;33.43;76.12;;
66888;Laerm;67239;51.680;5.976;2023-04-30T10:04:37;64.59;37.33;77.22;;
66888;Laerm;67239;51.680;5.976;2023-04-30T10:07:31;63.06;36.21;77.97;;
66888;Laerm;67239;51.680;5.976;2023-04-30T10:10:09;63.89;37.15;80.54;;
66888;Laerm;67239;51.680;5.976;2023-04-30T10:12:53;63.56;38.50;79.30;;
66888;Laerm;67239;51.680;5.976;2023-04-30T10:15:31;66.92;36.37;82.96;;
66888;Laerm;67239;51.680;5.976;2023-04-30T10:18:12;65.52;37.68;77.59;;
66888;Laerm;67239;51.680;5.976;2023-04-30T10:20:41;65.27;35.96;79.11;;
66888;Laerm;67239;51.680;5.976;2023-04-30T10:23:08;66.67;38.70;79.44;;
66888;Laerm;67239;51.680;5.976;2023-04-30T10:25:37;65.46;37.71;81.38;;
66888;Laerm;67239;51.680;5.976;2023-04-30T10:28:07;63.94;37.19;80.38;;
66888;Laerm;67239;51.680;5.976;2023-04-30T10:30:35;65.29;37.66;77.16;;
66888;Laerm;67239;51.680;5.976;2023-04-30T10:33:18;69.02;36.83;81.44;;
66888;Laerm;67239;51.680;5.976;2023-04-30T10:36:02;64.06;38.21;78.08;;
66888;Laerm;67239;51.680;5.976;2023-04-30T10:38:35;64.96;37.54;79.90;;
66888;Laerm;67239;51.680;5.976;2023-04-30T10:41:06;62.30;36.35;76.54;;
66888;Laerm;67239;51.680;5.976;2023-04-30T10:43:35;66.95;38.09;80.45;;
66888;Laerm;67239;51.680;5.976;2023-04-30T10:46:02;62.34;36.71;78.31;;
66888;Laerm;67239;51.680;5.976;2023-04-30T10:48:33;63.83;35.03;76.86;;
66888;Laerm;67239;51.680;5.976;2023-04-30T10:51:01;73.42;35.00;97.18;;
66888;Laerm;67239;51.680;5.976;2023-04-30T10:53:30;66.82;39.29;77.82;;
66888;Laerm;67239;51.680;5.976;2023-04-30T10:56:01;61.00;34.14;79.55;;
66888;Laerm;67239;51.680;5.976;2023-04-30T10:58:38;68.40;41.79;81.83;;
66888;Laerm;67239;51.680;5.976;2023-04-30T11:01:12;65.88;35.56;79.92;;
66888;Laerm;67239;51.680;5.976;2023-04-30T11:04:02;66.03;36.87;78.75;;
66888;Laerm;67239;51.680;5.976;2023-04-30T11:09:16;63.35;36.40;78.00;;
66888;Laerm;67239;51.680;5.976;2023-04-30T11:11:45;62.14;34.51;78.14;;
66888;Laerm;67239;51.680;5.976;2023-04-30T11:14:19;63.85;34.79;77.96;;
66888;Laerm;67239;51.680;5.976;2023-04-30T11:16:52;63.49;35.80;78.67;;
66888;Laerm;67239;51.680;5.976;2023-04-30T11:19:21;63.35;35.83;77.50;;
66888;Laerm;67239;51.680;5.976;2023-04-30T11:27:26;61.78;35.75;75.79;;
66888;Laerm;67239;51.680;5.976;2023-04-30T11:29:56;63.17;39.39;79.85;;
66888;Laerm;67239;51.680;5.976;2023-04-30T11:32:32;67.91;38.27;84.39;;
66888;Laerm;67239;51.680;5.976;2023-04-30T11:35:04;66.57;36.90;84.12;;
66888;Laerm;67239;51.680;5.976;2023-04-30T11:37:34;66.66;36.81;81.48;;
66888;Laerm;67239;51.680;5.976;2023-04-30T11:40:08;65.86;38.43;78.43;;
66888;Laerm;67239;51.680;5.976;2023-04-30T11:42:38;71.33;39.80;89.57;;
66888;Laerm;67239;51.680;5.976;2023-04-30T11:45:16;64.63;40.44;79.94;;
66888;Laerm;67239;51.680;5.976;2023-04-30T11:47:52;59.89;35.73;77.05;;
66888;Laerm;67239;51.680;5.976;2023-04-30T11:50:23;65.23;38.26;80.90;;
66888;Laerm;67239;51.680;5.976;2023-04-30T11:52:58;65.99;36.72;80.49;;
66888;Laerm;67239;51.680;5.976;2023-04-30T11:55:27;67.57;39.34;79.90;;
66888;Laerm;67239;51.680;5.976;2023-04-30T11:57:56;66.29;40.54;78.73;;
66888;Laerm;67239;51.680;5.976;2023-04-30T12:00:27;66.22;42.90;79.06;;
66888;Laerm;67239;51.680;5.976;2023-04-30T12:02:57;66.49;41.87;79.90;;
66888;Laerm;67239;51.680;5.976;2023-04-30T12:05:26;65.50;37.83;79.37;;
66888;Laerm;67239;51.680;5.976;2023-04-30T12:08:00;68.35;39.05;81.34;;
66888;Laerm;67239;51.680;5.976;2023-04-30T12:10:31;67.28;35.93;84.18;;
66888;Laerm;67239;51.680;5.976;2023-04-30T12:12:58;67.72;37.09;85.51;;
66888;Laerm;67239;51.680;5.976;2023-04-30T12:15:26;66.57;36.94;79.35;;
66888;Laerm;67239;51.680;5.976;2023-04-30T12:17:56;64.22;37.43;79.78;;
66888;Laerm;67239;51.680;5.976;2023-04-30T12:20:29;63.30;34.59;80.94;;
66888;Laerm;67239;51.680;5.976;2023-04-30T12:22:57;66.62;36.15;79.59;;
66888;Laerm;67239;51.680;5.976;2023-04-30T12:25:28;64.25;37.84;77.84;;
66888;Laerm;67239;51.680;5.976;2023-04-30T12:27:58;66.62;44.57;79.09;;
66888;Laerm;67239;51.680;5.976;2023-04-30T12:30:26;67.72;39.74;80.02;;
66888;Laerm;67239;51.680;5.976;2023-04-30T12:32:59;67.32;37.93;80.56;;
66888;Laerm;67239;51.680;5.976;2023-04-30T12:35:28;78.11;40.17;100.48;;
66888;Laerm;67239;51.680;5.976;2023-04-30T12:38:06;62.23;37.18;77.78;;
66888;Laerm;67239;51.680;5.976;2023-04-30T12:40:34;66.04;38.88;82.58;;
66888;Laerm;67239;51.680;5.976;2023-04-30T12:43:07;64.83;38.11;79.89;;
66888;Laerm;67239;51.680;5.976;2023-04-30T12:45:50;63.43;37.73;75.80;;
66888;Laerm;67239;51.680;5.976;2023-04-30T12:48:23;66.60;37.55;78.26;;
66888;Laerm;67239;51.680;5.976;2023-04-30T12:50:59;67.91;39.88;80.30;;
66888;Laerm;67239;51.680;5.976;2023-04-30T12:53:30;66.61;37.30;81.82;;
66888;Laerm;67239;51.680;5.976;2023-04-30T12:56:16;60.81;36.04;77.39;;
66888;Laerm;67239;51.680;5.976;2023-04-30T12:58:46;66.81;37.00;82.15;;
66888;Laerm;67239;51.680;5.976;2023-04-30T13:01:18;62.64;35.74;77.32;;
66888;Laerm;67239;51.680;5.976;2023-04-30T13:03:46;64.59;39.25;82.28;;
66888;Laerm;67239;51.680;5.976;2023-04-30T13:06:14;66.62;39.98;80.86;;
66888;Laerm;67239;51.680;5.976;2023-04-30T13:08:43;65.64;37.61;80.57;;
66888;Laerm;67239;51.680;5.976;2023-04-30T13:11:24;65.24;36.84;84.10;;
66888;Laerm;67239;51.680;5.976;2023-04-30T13:13:53;63.34;37.89;76.10;;
66888;Laerm;67239;51.680;5.976;2023-04-30T13:16:22;67.60;39.62;85.40;;
66888;Laerm;67239;51.680;5.976;2023-04-30T13:18:51;66.18;37.61;78.02;;
66888;Laerm;67239;51.680;5.976;2023-04-30T13:21:18;65.65;35.95;79.99;;
66888;Laerm;67239;51.680;5.976;2023-04-30T13:23:46;63.50;36.49;79.48;;
66888;Laerm;67239;51.680;5.976;2023-04-30T13:26:19;66.09;38.90;79.60;;
66888;Laerm;67239;51.680;5.976;2023-04-30T13:28:47;64.06;36.17;79.90;;
66888;Laerm;67239;51.680;5.976;2023-04-30T13:31:14;64.97;33.95;77.28;;
66888;Laerm;67239;51.680;5.976;2023-04-30T13:33:41;66.31;35.92;86.61;;
66888;Laerm;67239;51.680;5.976;2023-04-30T13:36:09;65.54;37.75;78.83;;
66888;Laerm;67239;51.680;5.976;2023-04-30T13:38:36;63.86;38.85;76.37;;
66888;Laerm;67239;51.680;5.976;2023-04-30T13:41:05;63.64;35.91;77.25;;
66888;Laerm;67239;51.680;5.976;2023-04-30T13:43:32;61.89;36.27;79.58;;
66888;Laerm;67239;51.680;5.976;2023-04-30T13:45:59;60.89;35.28;77.48;;
66888;Laerm;67239;51.680;5.976;2023-04-30T13:48:27;68.98;41.34;88.26;;
66888;Laerm;67239;51.680;5.976;2023-04-30T13:50:54;65.71;41.76;82.55;;
66888;Laerm;67239;51.680;5.976;2023-04-30T13:53:21;65.40;40.88;79.07;;
66888;Laerm;67239;51.680;5.976;2023-04-30T13:55:48;65.58;36.46;81.44;;
66888;Laerm;67239;51.680;5.976;2023-04-30T13:58:15;66.44;37.44;79.91;;
66888;Laerm;67239;51.680;5.976;2023-04-30T14:00:42;61.38;36.72;75.50;;
66888;Laerm;67239;51.680;5.976;2023-04-30T14:03:09;66.41;39.22;79.53;;
66888;Laerm;67239;51.680;5.976;2023-04-30T14:05:38;67.30;36.85;84.86;;
66888;Laerm;67239;51.680;5.976;2023-04-30T14:08:05;67.17;37.11;81.39;;
66888;Laerm;67239;51.680;5.976;2023-04-30T14:10:32;62.65;33.45;82.78;;
66888;Laerm;67239;51.680;5.976;2023-04-30T14:12:59;63.78;33.79;78.34;;